Tropical Cyclones
[Index]
Main Index Home Page Stock Weather Photos Extreme Storms Discussion Storm News and Storm Chasing Reports Tropical Cyclones / Hurricanes / Typhoons Weather Data and Links Wild Fires / Bushfires Weather Observation Techniques Weather Picture Catalogue Tornado Pictures and Reports Stock Video Footage and DVDs for sale
Season 2000-2001 Tropical Cyclone RITA Track Map
Season 2000-2001 Summaries (Operational Data): [AU] [SIO] [SPAC] [SH]
<<- Previous TC | 2000-2001 Season | Next TC ->>

click for intensity scale information  Lat/long Grid: Show Hide

 Date Labels: Show Hide

Operational Tropical Cyclone Data : JTWC Advisories

Name: RITA
Number: 0114

28 Feb 2001 20:00 UTC to 05 Mar 2001 11:00 UTC

    date/time    lat    long     hPa   cat  kts
2001-02-28 20   19.3   136.3W    998    1    35          
2001-03-01 00   19.7   136.3W    996    1    35          
2001-03-01 06   19.7   136.0W    995    1    35          
2001-03-01 12   19.7   135.8W    995    1    35          
2001-03-01 18   19.8   135.0W    995    1    35          
2001-03-02 00   20.2   134.8W    987    1    45          
2001-03-02 06   20.6   134.6W    985    2    50          
2001-03-02 12   20.9   134.2W    995    1    35          
2001-03-02 18   21.7   135.0W    995    1    35          
2001-03-03 00   23.1   135.2W    990    1    45          
2001-03-03 06   23.4   135.4W    990    1    40          
2001-03-03 12   23.5   135.5W    990    1    40          
2001-03-03 18   24.3   136.0W    990    1    40          
2001-03-04 00   26.0   137.0W    990    1    40          
2001-03-04 06   26.0   136.0W    985    1    45          
2001-03-04 12   27.5   137.5W    986    1    45          
2001-03-04 18   29.5   136.5W    990    1    40          
2001-03-05 00   30.5   135.5W    990    1    40          
2001-03-05 05   32.0   134.0W    996    1    35          
2001-03-05 11   33.0   136.0W    999    1    35          
Winds are 10-min average.

Tropical cyclone tracks developed by Michael Bath using operational warnings and advisories and Google Maps.


[Australian Severe Weather index] [Copyright Notice] [Email Contacts] [Search This Site] [Privacy Policy]
Document: tropical_cyclone_rita.htm Updated: 28 May 2013